sensor_id;sensor_type;location;lat;lon;timestamp;P1;durP1;ratioP1;P2;durP2;ratioP2
68858;SDS011;55864;49.238;8.092;2022-07-29T00:00:53;6.40;;;2.40;;
68858;SDS011;55864;49.238;8.092;2022-07-29T00:02:54;8.85;;;2.50;;
68858;SDS011;55864;49.238;8.092;2022-07-29T00:04:55;8.52;;;3.05;;
68858;SDS011;55864;49.238;8.092;2022-07-29T00:06:56;6.68;;;2.33;;
68858;SDS011;55864;49.238;8.092;2022-07-29T00:08:57;8.45;;;2.53;;
68858;SDS011;55864;49.238;8.092;2022-07-29T00:10:58;8.07;;;2.60;;
68858;SDS011;55864;49.238;8.092;2022-07-29T00:12:58;6.03;;;2.50;;
68858;SDS011;55864;49.238;8.092;2022-07-29T00:14:59;6.25;;;2.85;;
68858;SDS011;55864;49.238;8.092;2022-07-29T00:16:59;7.35;;;2.75;;
68858;SDS011;55864;49.238;8.092;2022-07-29T00:19:00;7.68;;;2.50;;
68858;SDS011;55864;49.238;8.092;2022-07-29T00:21:00;6.32;;;2.47;;
68858;SDS011;55864;49.238;8.092;2022-07-29T00:23:02;6.18;;;2.30;;
68858;SDS011;55864;49.238;8.092;2022-07-29T00:25:03;10.23;;;2.85;;
68858;SDS011;55864;49.238;8.092;2022-07-29T00:27:04;8.82;;;2.78;;
68858;SDS011;55864;49.238;8.092;2022-07-29T00:29:05;6.38;;;2.60;;
68858;SDS011;55864;49.238;8.092;2022-07-29T00:31:05;6.05;;;2.58;;
68858;SDS011;55864;49.238;8.092;2022-07-29T00:33:06;6.18;;;2.63;;
68858;SDS011;55864;49.238;8.092;2022-07-29T00:35:07;5.85;;;2.90;;
68858;SDS011;55864;49.238;8.092;2022-07-29T00:37:08;5.50;;;2.58;;
68858;SDS011;55864;49.238;8.092;2022-07-29T00:39:12;9.23;;;2.88;;
68858;SDS011;55864;49.238;8.092;2022-07-29T00:41:12;9.20;;;2.72;;
68858;SDS011;55864;49.238;8.092;2022-07-29T00:43:13;6.80;;;2.50;;
68858;SDS011;55864;49.238;8.092;2022-07-29T00:45:14;6.82;;;2.65;;
68858;SDS011;55864;49.238;8.092;2022-07-29T00:47:15;7.50;;;2.80;;
68858;SDS011;55864;49.238;8.092;2022-07-29T00:49:16;5.28;;;2.38;;
68858;SDS011;55864;49.238;8.092;2022-07-29T00:51:16;8.48;;;3.03;;
68858;SDS011;55864;49.238;8.092;2022-07-29T00:53:17;7.97;;;2.70;;
68858;SDS011;55864;49.238;8.092;2022-07-29T00:55:21;7.43;;;2.63;;
68858;SDS011;55864;49.238;8.092;2022-07-29T00:57:22;7.47;;;3.03;;
68858;SDS011;55864;49.238;8.092;2022-07-29T00:59:23;7.70;;;3.15;;
68858;SDS011;55864;49.238;8.092;2022-07-29T01:01:23;8.32;;;2.85;;
68858;SDS011;55864;49.238;8.092;2022-07-29T01:03:24;6.30;;;3.20;;
68858;SDS011;55864;49.238;8.092;2022-07-29T01:05:26;9.27;;;3.13;;
68858;SDS011;55864;49.238;8.092;2022-07-29T01:07:27;7.68;;;2.90;;
68858;SDS011;55864;49.238;8.092;2022-07-29T01:09:31;6.65;;;3.05;;
68858;SDS011;55864;49.238;8.092;2022-07-29T01:11:35;6.35;;;2.90;;
68858;SDS011;55864;49.238;8.092;2022-07-29T01:13:39;6.10;;;3.00;;
68858;SDS011;55864;49.238;8.092;2022-07-29T01:15:41;7.05;;;2.90;;
68858;SDS011;55864;49.238;8.092;2022-07-29T01:17:46;9.85;;;2.95;;
68858;SDS011;55864;49.238;8.092;2022-07-29T01:19:56;6.10;;;3.10;;
68858;SDS011;55864;49.238;8.092;2022-07-29T01:22:02;6.22;;;3.00;;
68858;SDS011;55864;49.238;8.092;2022-07-29T01:24:20;6.40;;;2.92;;
68858;SDS011;55864;49.238;8.092;2022-07-29T01:26:34;6.68;;;2.97;;
68858;SDS011;55864;49.238;8.092;2022-07-29T01:28:47;5.72;;;2.97;;
68858;SDS011;55864;49.238;8.092;2022-07-29T01:31:05;9.13;;;2.88;;
68858;SDS011;55864;49.238;8.092;2022-07-29T01:33:09;7.07;;;2.72;;
68858;SDS011;55864;49.238;8.092;2022-07-29T01:35:15;7.45;;;2.80;;
68858;SDS011;55864;49.238;8.092;2022-07-29T01:37:19;6.07;;;3.00;;
68858;SDS011;55864;49.238;8.092;2022-07-29T01:39:23;6.60;;;2.92;;
68858;SDS011;55864;49.238;8.092;2022-07-29T01:41:29;6.65;;;3.10;;
68858;SDS011;55864;49.238;8.092;2022-07-29T01:43:33;6.07;;;3.00;;
68858;SDS011;55864;49.238;8.092;2022-07-29T01:45:40;6.63;;;3.10;;
68858;SDS011;55864;49.238;8.092;2022-07-29T01:47:43;7.55;;;3.40;;
68858;SDS011;55864;49.238;8.092;2022-07-29T01:49:48;10.10;;;3.30;;
68858;SDS011;55864;49.238;8.092;2022-07-29T01:51:51;7.55;;;3.20;;
68858;SDS011;55864;49.238;8.092;2022-07-29T01:53:55;6.28;;;3.10;;
68858;SDS011;55864;49.238;8.092;2022-07-29T01:56:01;7.32;;;3.30;;
68858;SDS011;55864;49.238;8.092;2022-07-29T01:58:04;6.93;;;3.28;;
68858;SDS011;55864;49.238;8.092;2022-07-29T02:02:16;6.93;;;3.30;;
68858;SDS011;55864;49.238;8.092;2022-07-29T02:04:19;6.15;;;2.92;;
68858;SDS011;55864;49.238;8.092;2022-07-29T02:06:21;8.98;;;3.33;;
68858;SDS011;55864;49.238;8.092;2022-07-29T02:08:23;7.53;;;3.00;;
68858;SDS011;55864;49.238;8.092;2022-07-29T02:10:28;6.82;;;3.25;;
68858;SDS011;55864;49.238;8.092;2022-07-29T02:12:31;6.70;;;2.90;;
68858;SDS011;55864;49.238;8.092;2022-07-29T02:14:33;10.45;;;3.38;;
68858;SDS011;55864;49.238;8.092;2022-07-29T02:16:36;7.50;;;3.08;;
68858;SDS011;55864;49.238;8.092;2022-07-29T02:18:40;6.90;;;3.13;;
68858;SDS011;55864;49.238;8.092;2022-07-29T02:20:45;6.28;;;3.00;;
68858;SDS011;55864;49.238;8.092;2022-07-29T02:22:48;6.65;;;3.10;;
68858;SDS011;55864;49.238;8.092;2022-07-29T02:24:52;8.45;;;3.05;;
68858;SDS011;55864;49.238;8.092;2022-07-29T02:26:55;6.40;;;2.72;;
68858;SDS011;55864;49.238;8.092;2022-07-29T02:28:57;9.48;;;3.30;;
68858;SDS011;55864;49.238;8.092;2022-07-29T02:30:59;6.43;;;3.15;;
68858;SDS011;55864;49.238;8.092;2022-07-29T02:33:02;6.18;;;2.55;;
68858;SDS011;55864;49.238;8.092;2022-07-29T02:35:06;8.60;;;2.77;;
68858;SDS011;55864;49.238;8.092;2022-07-29T02:37:08;5.50;;;2.50;;
68858;SDS011;55864;49.238;8.092;2022-07-29T02:39:10;6.78;;;3.00;;
68858;SDS011;55864;49.238;8.092;2022-07-29T02:41:13;6.07;;;3.00;;
68858;SDS011;55864;49.238;8.092;2022-07-29T02:43:16;8.48;;;2.95;;
68858;SDS011;55864;49.238;8.092;2022-07-29T02:45:19;5.80;;;3.17;;
68858;SDS011;55864;49.238;8.092;2022-07-29T02:47:21;7.47;;;2.80;;
68858;SDS011;55864;49.238;8.092;2022-07-29T02:49:28;7.93;;;3.00;;
68858;SDS011;55864;49.238;8.092;2022-07-29T02:51:39;10.90;;;2.97;;
68858;SDS011;55864;49.238;8.092;2022-07-29T02:53:43;7.93;;;2.80;;
68858;SDS011;55864;49.238;8.092;2022-07-29T02:55:49;7.45;;;3.15;;
68858;SDS011;55864;49.238;8.092;2022-07-29T02:57:57;9.35;;;2.90;;
68858;SDS011;55864;49.238;8.092;2022-07-29T03:00:02;7.97;;;2.90;;
68858;SDS011;55864;49.238;8.092;2022-07-29T03:02:05;8.70;;;3.20;;
68858;SDS011;55864;49.238;8.092;2022-07-29T03:04:08;6.18;;;2.78;;
68858;SDS011;55864;49.238;8.092;2022-07-29T03:06:12;6.82;;;2.90;;
68858;SDS011;55864;49.238;8.092;2022-07-29T03:08:16;8.18;;;3.55;;
68858;SDS011;55864;49.238;8.092;2022-07-29T03:10:17;8.30;;;3.50;;
68858;SDS011;55864;49.238;8.092;2022-07-29T03:12:18;7.47;;;3.25;;
68858;SDS011;55864;49.238;8.092;2022-07-29T03:14:19;5.90;;;3.25;;
68858;SDS011;55864;49.238;8.092;2022-07-29T03:16:21;8.23;;;3.10;;
68858;SDS011;55864;49.238;8.092;2022-07-29T03:18:22;6.75;;;3.10;;
68858;SDS011;55864;49.238;8.092;2022-07-29T03:20:23;6.15;;;2.88;;
68858;SDS011;55864;49.238;8.092;2022-07-29T03:22:24;8.95;;;3.08;;
68858;SDS011;55864;49.238;8.092;2022-07-29T03:24:28;6.60;;;3.13;;
68858;SDS011;55864;49.238;8.092;2022-07-29T03:26:30;7.38;;;3.38;;
68858;SDS011;55864;49.238;8.092;2022-07-29T03:28:31;6.63;;;3.65;;
68858;SDS011;55864;49.238;8.092;2022-07-29T03:30:31;5.70;;;2.95;;
68858;SDS011;55864;49.238;8.092;2022-07-29T03:32:35;7.10;;;3.45;;
68858;SDS011;55864;49.238;8.092;2022-07-29T03:34:37;7.22;;;3.20;;
68858;SDS011;55864;49.238;8.092;2022-07-29T03:36:38;6.15;;;3.08;;
68858;SDS011;55864;49.238;8.092;2022-07-29T03:38:39;7.88;;;3.30;;
68858;SDS011;55864;49.238;8.092;2022-07-29T03:40:46;7.00;;;3.20;;
68858;SDS011;55864;49.238;8.092;2022-07-29T03:42:51;6.43;;;3.17;;
68858;SDS011;55864;49.238;8.092;2022-07-29T03:44:55;6.70;;;3.42;;
68858;SDS011;55864;49.238;8.092;2022-07-29T03:47:00;6.97;;;3.03;;
68858;SDS011;55864;49.238;8.092;2022-07-29T03:49:02;7.15;;;3.15;;
68858;SDS011;55864;49.238;8.092;2022-07-29T03:53:05;6.82;;;3.10;;
68858;SDS011;55864;49.238;8.092;2022-07-29T03:55:06;7.50;;;3.28;;
68858;SDS011;55864;49.238;8.092;2022-07-29T03:57:10;10.90;;;3.40;;
68858;SDS011;55864;49.238;8.092;2022-07-29T03:59:11;7.43;;;3.30;;
68858;SDS011;55864;49.238;8.092;2022-07-29T04:01:13;7.18;;;3.20;;
68858;SDS011;55864;49.238;8.092;2022-07-29T04:03:15;6.88;;;3.55;;
68858;SDS011;55864;49.238;8.092;2022-07-29T04:05:16;5.50;;;3.30;;
68858;SDS011;55864;49.238;8.092;2022-07-29T04:07:17;7.15;;;3.28;;
68858;SDS011;55864;49.238;8.092;2022-07-29T04:09:18;6.85;;;3.22;;
68858;SDS011;55864;49.238;8.092;2022-07-29T04:11:18;9.07;;;3.40;;
68858;SDS011;55864;49.238;8.092;2022-07-29T04:13:21;7.15;;;3.67;;
68858;SDS011;55864;49.238;8.092;2022-07-29T04:15:21;7.78;;;3.45;;
68858;SDS011;55864;49.238;8.092;2022-07-29T04:17:22;6.70;;;3.05;;
68858;SDS011;55864;49.238;8.092;2022-07-29T04:19:22;6.57;;;3.58;;
68858;SDS011;55864;49.238;8.092;2022-07-29T04:21:23;6.70;;;3.35;;
68858;SDS011;55864;49.238;8.092;2022-07-29T04:23:24;10.98;;;3.22;;
68858;SDS011;55864;49.238;8.092;2022-07-29T04:25:24;8.27;;;3.15;;
68858;SDS011;55864;49.238;8.092;2022-07-29T04:27:25;7.75;;;3.38;;
68858;SDS011;55864;49.238;8.092;2022-07-29T04:29:27;10.55;;;3.83;;
68858;SDS011;55864;49.238;8.092;2022-07-29T04:31:27;9.77;;;4.32;;
68858;SDS011;55864;49.238;8.092;2022-07-29T04:33:28;9.60;;;4.28;;
68858;SDS011;55864;49.238;8.092;2022-07-29T04:35:29;7.85;;;4.20;;
68858;SDS011;55864;49.238;8.092;2022-07-29T04:37:30;8.77;;;4.13;;
68858;SDS011;55864;49.238;8.092;2022-07-29T04:39:30;7.78;;;4.10;;
68858;SDS011;55864;49.238;8.092;2022-07-29T04:41:31;7.60;;;4.35;;
68858;SDS011;55864;49.238;8.092;2022-07-29T04:43:32;8.23;;;4.30;;
68858;SDS011;55864;49.238;8.092;2022-07-29T04:45:34;10.20;;;4.53;;
68858;SDS011;55864;49.238;8.092;2022-07-29T04:47:34;11.05;;;4.25;;
68858;SDS011;55864;49.238;8.092;2022-07-29T04:49:37;10.25;;;4.57;;
68858;SDS011;55864;49.238;8.092;2022-07-29T04:51:38;8.48;;;4.13;;
68858;SDS011;55864;49.238;8.092;2022-07-29T04:53:38;8.77;;;4.15;;
68858;SDS011;55864;49.238;8.092;2022-07-29T04:55:39;9.55;;;4.13;;
68858;SDS011;55864;49.238;8.092;2022-07-29T04:57:40;17.17;;;4.32;;
68858;SDS011;55864;49.238;8.092;2022-07-29T04:59:40;17.80;;;4.38;;
68858;SDS011;55864;49.238;8.092;2022-07-29T05:01:42;20.42;;;4.95;;
68858;SDS011;55864;49.238;8.092;2022-07-29T05:03:43;19.98;;;4.18;;
68858;SDS011;55864;49.238;8.092;2022-07-29T05:05:43;12.70;;;3.83;;
68858;SDS011;55864;49.238;8.092;2022-07-29T05:07:44;10.77;;;4.25;;
68858;SDS011;55864;49.238;8.092;2022-07-29T05:09:44;10.10;;;3.78;;
68858;SDS011;55864;49.238;8.092;2022-07-29T05:11:45;9.27;;;4.53;;
68858;SDS011;55864;49.238;8.092;2022-07-29T05:13:45;8.40;;;3.97;;
68858;SDS011;55864;49.238;8.092;2022-07-29T05:15:46;7.85;;;4.22;;
68858;SDS011;55864;49.238;8.092;2022-07-29T05:17:48;12.80;;;4.32;;
68858;SDS011;55864;49.238;8.092;2022-07-29T05:19:48;6.60;;;3.95;;
68858;SDS011;55864;49.238;8.092;2022-07-29T05:21:49;11.57;;;4.40;;
68858;SDS011;55864;49.238;8.092;2022-07-29T05:23:50;7.57;;;4.38;;
68858;SDS011;55864;49.238;8.092;2022-07-29T05:25:54;10.63;;;4.82;;
68858;SDS011;55864;49.238;8.092;2022-07-29T05:27:55;10.40;;;4.50;;
68858;SDS011;55864;49.238;8.092;2022-07-29T05:29:55;8.15;;;4.00;;
68858;SDS011;55864;49.238;8.092;2022-07-29T05:31:56;9.40;;;3.97;;
68858;SDS011;55864;49.238;8.092;2022-07-29T05:33:58;8.65;;;3.75;;
68858;SDS011;55864;49.238;8.092;2022-07-29T05:35:59;7.30;;;4.10;;
68858;SDS011;55864;49.238;8.092;2022-07-29T05:37:59;8.07;;;3.97;;
68858;SDS011;55864;49.238;8.092;2022-07-29T05:40:00;8.98;;;3.90;;
68858;SDS011;55864;49.238;8.092;2022-07-29T05:42:00;6.97;;;3.35;;
68858;SDS011;55864;49.238;8.092;2022-07-29T05:44:01;9.77;;;3.75;;
68858;SDS011;55864;49.238;8.092;2022-07-29T05:46:02;7.68;;;3.42;;
68858;SDS011;55864;49.238;8.092;2022-07-29T05:48:03;8.45;;;3.60;;
68858;SDS011;55864;49.238;8.092;2022-07-29T05:50:06;7.45;;;3.60;;
68858;SDS011;55864;49.238;8.092;2022-07-29T05:52:07;7.28;;;3.65;;
68858;SDS011;55864;49.238;8.092;2022-07-29T05:54:07;8.18;;;3.40;;
68858;SDS011;55864;49.238;8.092;2022-07-29T05:56:08;7.80;;;3.80;;
68858;SDS011;55864;49.238;8.092;2022-07-29T05:58:08;9.48;;;3.33;;
68858;SDS011;55864;49.238;8.092;2022-07-29T06:00:09;7.63;;;3.70;;
68858;SDS011;55864;49.238;8.092;2022-07-29T06:02:13;8.00;;;3.30;;
68858;SDS011;55864;49.238;8.092;2022-07-29T06:04:14;7.93;;;3.60;;
68858;SDS011;55864;49.238;8.092;2022-07-29T06:06:16;6.63;;;3.58;;
68858;SDS011;55864;49.238;8.092;2022-07-29T06:08:17;8.82;;;3.63;;
68858;SDS011;55864;49.238;8.092;2022-07-29T06:10:17;7.70;;;3.70;;
68858;SDS011;55864;49.238;8.092;2022-07-29T06:12:18;8.30;;;3.72;;
68858;SDS011;55864;49.238;8.092;2022-07-29T06:14:19;11.90;;;3.85;;
68858;SDS011;55864;49.238;8.092;2022-07-29T06:16:19;7.32;;;3.55;;
68858;SDS011;55864;49.238;8.092;2022-07-29T06:18:20;7.47;;;3.65;;
68858;SDS011;55864;49.238;8.092;2022-07-29T06:20:21;7.45;;;3.83;;
68858;SDS011;55864;49.238;8.092;2022-07-29T06:22:22;12.70;;;3.92;;
68858;SDS011;55864;49.238;8.092;2022-07-29T06:24:23;8.88;;;3.80;;
68858;SDS011;55864;49.238;8.092;2022-07-29T06:26:24;9.10;;;3.83;;
68858;SDS011;55864;49.238;8.092;2022-07-29T06:28:24;9.93;;;3.65;;
68858;SDS011;55864;49.238;8.092;2022-07-29T06:30:25;7.10;;;3.75;;
68858;SDS011;55864;49.238;8.092;2022-07-29T06:32:25;12.27;;;4.03;;
68858;SDS011;55864;49.238;8.092;2022-07-29T06:34:26;7.18;;;3.72;;
68858;SDS011;55864;49.238;8.092;2022-07-29T06:36:26;8.93;;;3.33;;
68858;SDS011;55864;49.238;8.092;2022-07-29T06:38:28;7.60;;;3.05;;
68858;SDS011;55864;49.238;8.092;2022-07-29T06:40:29;9.10;;;3.50;;
68858;SDS011;55864;49.238;8.092;2022-07-29T06:42:30;10.20;;;3.55;;
68858;SDS011;55864;49.238;8.092;2022-07-29T06:44:30;8.55;;;3.15;;
68858;SDS011;55864;49.238;8.092;2022-07-29T06:46:31;8.80;;;3.40;;
68858;SDS011;55864;49.238;8.092;2022-07-29T06:48:32;7.03;;;3.63;;
68858;SDS011;55864;49.238;8.092;2022-07-29T06:50:33;7.57;;;3.40;;
68858;SDS011;55864;49.238;8.092;2022-07-29T06:52:34;8.18;;;3.47;;
68858;SDS011;55864;49.238;8.092;2022-07-29T06:54:36;7.70;;;3.47;;
68858;SDS011;55864;49.238;8.092;2022-07-29T06:56:36;6.15;;;3.33;;
68858;SDS011;55864;49.238;8.092;2022-07-29T06:58:37;7.07;;;3.30;;
68858;SDS011;55864;49.238;8.092;2022-07-29T07:00:38;8.18;;;3.28;;
68858;SDS011;55864;49.238;8.092;2022-07-29T07:02:38;11.50;;;3.63;;
68858;SDS011;55864;49.238;8.092;2022-07-29T07:04:39;8.73;;;3.88;;
68858;SDS011;55864;49.238;8.092;2022-07-29T07:06:39;9.38;;;3.50;;
68858;SDS011;55864;49.238;8.092;2022-07-29T07:08:40;6.93;;;3.50;;
68858;SDS011;55864;49.238;8.092;2022-07-29T07:10:42;6.85;;;3.50;;
68858;SDS011;55864;49.238;8.092;2022-07-29T07:12:42;8.00;;;3.55;;
68858;SDS011;55864;49.238;8.092;2022-07-29T07:14:43;8.50;;;3.38;;
68858;SDS011;55864;49.238;8.092;2022-07-29T07:16:43;8.52;;;3.45;;
68858;SDS011;55864;49.238;8.092;2022-07-29T07:18:44;10.80;;;4.13;;
68858;SDS011;55864;49.238;8.092;2022-07-29T07:20:44;13.02;;;3.80;;
68858;SDS011;55864;49.238;8.092;2022-07-29T07:22:45;9.68;;;3.63;;
68858;SDS011;55864;49.238;8.092;2022-07-29T07:24:46;8.85;;;3.60;;
68858;SDS011;55864;49.238;8.092;2022-07-29T07:26:48;14.80;;;3.80;;
68858;SDS011;55864;49.238;8.092;2022-07-29T07:28:48;9.45;;;3.78;;
68858;SDS011;55864;49.238;8.092;2022-07-29T07:30:49;9.68;;;3.92;;
68858;SDS011;55864;49.238;8.092;2022-07-29T07:32:50;9.25;;;3.83;;
68858;SDS011;55864;49.238;8.092;2022-07-29T07:34:50;8.98;;;3.60;;
68858;SDS011;55864;49.238;8.092;2022-07-29T07:36:51;9.52;;;3.47;;
68858;SDS011;55864;49.238;8.092;2022-07-29T07:38:51;8.20;;;3.75;;
68858;SDS011;55864;49.238;8.092;2022-07-29T07:40:52;7.82;;;3.80;;
68858;SDS011;55864;49.238;8.092;2022-07-29T07:42:54;7.90;;;3.40;;
68858;SDS011;55864;49.238;8.092;2022-07-29T07:44:54;9.73;;;4.10;;
68858;SDS011;55864;49.238;8.092;2022-07-29T07:46:55;10.43;;;3.40;;
68858;SDS011;55864;49.238;8.092;2022-07-29T07:48:56;12.65;;;3.85;;
68858;SDS011;55864;49.238;8.092;2022-07-29T07:50:56;11.82;;;3.95;;
68858;SDS011;55864;49.238;8.092;2022-07-29T07:52:57;11.80;;;3.83;;
68858;SDS011;55864;49.238;8.092;2022-07-29T07:54:57;10.52;;;3.83;;
68858;SDS011;55864;49.238;8.092;2022-07-29T07:56:58;12.43;;;3.50;;
68858;SDS011;55864;49.238;8.092;2022-07-29T07:59:00;9.40;;;3.60;;
68858;SDS011;55864;49.238;8.092;2022-07-29T08:01:00;17.52;;;3.88;;
68858;SDS011;55864;49.238;8.092;2022-07-29T08:03:01;12.40;;;4.03;;
68858;SDS011;55864;49.238;8.092;2022-07-29T08:05:02;8.02;;;3.47;;
68858;SDS011;55864;49.238;8.092;2022-07-29T08:07:02;7.03;;;3.70;;
68858;SDS011;55864;49.238;8.092;2022-07-29T08:09:03;9.65;;;3.67;;
68858;SDS011;55864;49.238;8.092;2022-07-29T08:11:04;12.23;;;3.50;;
68858;SDS011;55864;49.238;8.092;2022-07-29T08:13:05;6.97;;;3.38;;
68858;SDS011;55864;49.238;8.092;2022-07-29T08:15:08;9.57;;;3.70;;
68858;SDS011;55864;49.238;8.092;2022-07-29T08:17:09;10.88;;;3.70;;
68858;SDS011;55864;49.238;8.092;2022-07-29T08:19:10;11.35;;;3.90;;
68858;SDS011;55864;49.238;8.092;2022-07-29T08:21:10;7.35;;;3.70;;
68858;SDS011;55864;49.238;8.092;2022-07-29T08:23:11;7.70;;;3.33;;
68858;SDS011;55864;49.238;8.092;2022-07-29T08:25:12;9.98;;;3.92;;
68858;SDS011;55864;49.238;8.092;2022-07-29T08:27:13;6.22;;;3.53;;
68858;SDS011;55864;49.238;8.092;2022-07-29T08:29:14;9.95;;;3.30;;
68858;SDS011;55864;49.238;8.092;2022-07-29T08:31:16;7.95;;;3.78;;
68858;SDS011;55864;49.238;8.092;2022-07-29T08:33:16;8.63;;;3.70;;
68858;SDS011;55864;49.238;8.092;2022-07-29T08:35:17;8.13;;;3.67;;
68858;SDS011;55864;49.238;8.092;2022-07-29T08:37:17;6.38;;;3.45;;
68858;SDS011;55864;49.238;8.092;2022-07-29T08:39:18;8.77;;;3.42;;
68858;SDS011;55864;49.238;8.092;2022-07-29T08:41:19;8.70;;;3.45;;
68858;SDS011;55864;49.238;8.092;2022-07-29T08:43:19;8.93;;;3.47;;
68858;SDS011;55864;49.238;8.092;2022-07-29T08:45:20;8.65;;;3.53;;
68858;SDS011;55864;49.238;8.092;2022-07-29T08:47:24;9.55;;;3.22;;
68858;SDS011;55864;49.238;8.092;2022-07-29T08:49:25;8.73;;;3.55;;
68858;SDS011;55864;49.238;8.092;2022-07-29T08:51:26;7.43;;;3.42;;
68858;SDS011;55864;49.238;8.092;2022-07-29T08:53:27;6.28;;;3.42;;
68858;SDS011;55864;49.238;8.092;2022-07-29T08:55:29;7.82;;;3.45;;
68858;SDS011;55864;49.238;8.092;2022-07-29T08:57:29;7.65;;;3.40;;
68858;SDS011;55864;49.238;8.092;2022-07-29T08:59:32;10.05;;;3.80;;
68858;SDS011;55864;49.238;8.092;2022-07-29T09:01:35;6.28;;;3.42;;
68858;SDS011;55864;49.238;8.092;2022-07-29T09:03:39;6.93;;;3.53;;
68858;SDS011;55864;49.238;8.092;2022-07-29T09:05:41;10.43;;;3.50;;
68858;SDS011;55864;49.238;8.092;2022-07-29T09:07:42;8.35;;;3.78;;
68858;SDS011;55864;49.238;8.092;2022-07-29T09:09:43;8.48;;;3.30;;
68858;SDS011;55864;49.238;8.092;2022-07-29T09:11:44;8.70;;;3.72;;
68858;SDS011;55864;49.238;8.092;2022-07-29T09:13:45;7.65;;;3.60;;
68858;SDS011;55864;49.238;8.092;2022-07-29T09:15:46;7.25;;;3.75;;
68858;SDS011;55864;49.238;8.092;2022-07-29T09:17:47;8.18;;;3.45;;
68858;SDS011;55864;49.238;8.092;2022-07-29T09:19:50;6.60;;;3.60;;
68858;SDS011;55864;49.238;8.092;2022-07-29T09:21:51;6.93;;;3.58;;
68858;SDS011;55864;49.238;8.092;2022-07-29T09:24:03;8.30;;;3.33;;
68858;SDS011;55864;49.238;8.092;2022-07-29T09:26:06;7.38;;;3.45;;
68858;SDS011;55864;49.238;8.092;2022-07-29T09:28:06;7.18;;;3.60;;
68858;SDS011;55864;49.238;8.092;2022-07-29T09:30:08;6.30;;;3.20;;
68858;SDS011;55864;49.238;8.092;2022-07-29T09:34:11;8.25;;;3.17;;
68858;SDS011;55864;49.238;8.092;2022-07-29T09:36:14;8.48;;;3.15;;
68858;SDS011;55864;49.238;8.092;2022-07-29T09:38:15;7.80;;;3.20;;
68858;SDS011;55864;49.238;8.092;2022-07-29T09:40:16;7.20;;;3.10;;
68858;SDS011;55864;49.238;8.092;2022-07-29T09:42:27;10.57;;;3.28;;
68858;SDS011;55864;49.238;8.092;2022-07-29T09:44:40;7.55;;;3.30;;
68858;SDS011;55864;49.238;8.092;2022-07-29T09:46:52;8.07;;;3.10;;
68858;SDS011;55864;49.238;8.092;2022-07-29T09:49:06;8.30;;;3.50;;
68858;SDS011;55864;49.238;8.092;2022-07-29T09:51:17;8.18;;;3.47;;
68858;SDS011;55864;49.238;8.092;2022-07-29T09:55:40;9.40;;;3.42;;
68858;SDS011;55864;49.238;8.092;2022-07-29T09:57:46;6.30;;;3.70;;
68858;SDS011;55864;49.238;8.092;2022-07-29T09:59:49;7.82;;;3.67;;
68858;SDS011;55864;49.238;8.092;2022-07-29T10:01:56;7.38;;;3.55;;
68858;SDS011;55864;49.238;8.092;2022-07-29T10:03:57;6.85;;;3.42;;
68858;SDS011;55864;49.238;8.092;2022-07-29T10:06:04;6.57;;;3.47;;
68858;SDS011;55864;49.238;8.092;2022-07-29T10:08:08;7.82;;;3.30;;
68858;SDS011;55864;49.238;8.092;2022-07-29T10:10:09;10.38;;;3.30;;
68858;SDS011;55864;49.238;8.092;2022-07-29T10:12:10;8.05;;;3.75;;
68858;SDS011;55864;49.238;8.092;2022-07-29T10:14:12;6.68;;;3.33;;
68858;SDS011;55864;49.238;8.092;2022-07-29T10:16:13;7.93;;;3.30;;
68858;SDS011;55864;49.238;8.092;2022-07-29T10:18:14;11.07;;;3.88;;
68858;SDS011;55864;49.238;8.092;2022-07-29T10:20:15;12.52;;;3.70;;
68858;SDS011;55864;49.238;8.092;2022-07-29T10:22:15;10.38;;;3.70;;
68858;SDS011;55864;49.238;8.092;2022-07-29T10:24:18;7.47;;;3.45;;
68858;SDS011;55864;49.238;8.092;2022-07-29T10:26:19;8.77;;;3.60;;
68858;SDS011;55864;49.238;8.092;2022-07-29T10:28:20;7.53;;;3.42;;
68858;SDS011;55864;49.238;8.092;2022-07-29T10:30:21;6.03;;;3.22;;
68858;SDS011;55864;49.238;8.092;2022-07-29T10:32:29;6.80;;;3.08;;
68858;SDS011;55864;49.238;8.092;2022-07-29T10:34:44;9.38;;;3.55;;
68858;SDS011;55864;49.238;8.092;2022-07-29T10:37:00;7.28;;;3.58;;
68858;SDS011;55864;49.238;8.092;2022-07-29T10:39:10;9.40;;;3.45;;
68858;SDS011;55864;49.238;8.092;2022-07-29T10:41:28;6.03;;;3.40;;
68858;SDS011;55864;49.238;8.092;2022-07-29T10:43:38;6.03;;;3.40;;
68858;SDS011;55864;49.238;8.092;2022-07-29T10:45:42;11.77;;;3.90;;
68858;SDS011;55864;49.238;8.092;2022-07-29T10:47:44;7.75;;;3.35;;
68858;SDS011;55864;49.238;8.092;2022-07-29T10:49:53;7.68;;;3.38;;
68858;SDS011;55864;49.238;8.092;2022-07-29T10:52:00;8.40;;;3.10;;
68858;SDS011;55864;49.238;8.092;2022-07-29T10:54:02;7.88;;;3.15;;
68858;SDS011;55864;49.238;8.092;2022-07-29T10:56:03;8.85;;;3.80;;
68858;SDS011;55864;49.238;8.092;2022-07-29T11:00:30;10.77;;;3.83;;
68858;SDS011;55864;49.238;8.092;2022-07-29T11:02:41;8.52;;;3.20;;
68858;SDS011;55864;49.238;8.092;2022-07-29T11:05:00;11.73;;;3.47;;
68858;SDS011;55864;49.238;8.092;2022-07-29T11:07:07;6.55;;;3.67;;
68858;SDS011;55864;49.238;8.092;2022-07-29T11:09:15;7.38;;;3.70;;
68858;SDS011;55864;49.238;8.092;2022-07-29T11:13:51;5.95;;;3.05;;
68858;SDS011;55864;49.238;8.092;2022-07-29T11:15:53;7.20;;;3.70;;
68858;SDS011;55864;49.238;8.092;2022-07-29T11:18:04;6.30;;;3.45;;
68858;SDS011;55864;49.238;8.092;2022-07-29T11:22:39;7.30;;;4.00;;
68858;SDS011;55864;49.238;8.092;2022-07-29T11:24:40;11.77;;;3.67;;
68858;SDS011;55864;49.238;8.092;2022-07-29T11:26:40;7.90;;;3.63;;
68858;SDS011;55864;49.238;8.092;2022-07-29T11:28:48;6.88;;;3.20;;
68858;SDS011;55864;49.238;8.092;2022-07-29T11:30:53;8.18;;;3.45;;
68858;SDS011;55864;49.238;8.092;2022-07-29T11:32:54;11.70;;;3.80;;
68858;SDS011;55864;49.238;8.092;2022-07-29T11:37:21;7.25;;;3.67;;
68858;SDS011;55864;49.238;8.092;2022-07-29T11:39:25;6.40;;;3.50;;
68858;SDS011;55864;49.238;8.092;2022-07-29T11:41:26;6.45;;;3.35;;
68858;SDS011;55864;49.238;8.092;2022-07-29T11:45:49;8.32;;;3.40;;
68858;SDS011;55864;49.238;8.092;2022-07-29T11:47:52;7.93;;;3.88;;
68858;SDS011;55864;49.238;8.092;2022-07-29T11:49:55;6.63;;;3.25;;
68858;SDS011;55864;49.238;8.092;2022-07-29T11:51:57;7.75;;;3.22;;
68858;SDS011;55864;49.238;8.092;2022-07-29T11:53:58;10.23;;;3.33;;
68858;SDS011;55864;49.238;8.092;2022-07-29T11:56:00;7.10;;;3.17;;
68858;SDS011;55864;49.238;8.092;2022-07-29T11:58:01;7.00;;;3.22;;
68858;SDS011;55864;49.238;8.092;2022-07-29T12:00:02;8.15;;;2.80;;
68858;SDS011;55864;49.238;8.092;2022-07-29T12:02:04;5.97;;;2.70;;
68858;SDS011;55864;49.238;8.092;2022-07-29T12:04:06;6.78;;;3.13;;
68858;SDS011;55864;49.238;8.092;2022-07-29T12:06:11;9.52;;;3.30;;
68858;SDS011;55864;49.238;8.092;2022-07-29T12:08:13;8.27;;;3.10;;
68858;SDS011;55864;49.238;8.092;2022-07-29T12:10:16;6.68;;;3.00;;
68858;SDS011;55864;49.238;8.092;2022-07-29T12:12:16;7.53;;;3.00;;
68858;SDS011;55864;49.238;8.092;2022-07-29T12:14:24;5.95;;;3.00;;
68858;SDS011;55864;49.238;8.092;2022-07-29T12:16:33;7.05;;;3.10;;
68858;SDS011;55864;49.238;8.092;2022-07-29T12:18:35;9.43;;;2.92;;
68858;SDS011;55864;49.238;8.092;2022-07-29T12:20:37;11.07;;;3.38;;
68858;SDS011;55864;49.238;8.092;2022-07-29T12:22:39;6.70;;;3.25;;
68858;SDS011;55864;49.238;8.092;2022-07-29T12:24:43;7.70;;;3.40;;
68858;SDS011;55864;49.238;8.092;2022-07-29T12:26:50;5.55;;;3.00;;
68858;SDS011;55864;49.238;8.092;2022-07-29T12:28:52;6.03;;;3.22;;
68858;SDS011;55864;49.238;8.092;2022-07-29T12:30:52;7.45;;;3.20;;
68858;SDS011;55864;49.238;8.092;2022-07-29T12:32:53;11.43;;;3.22;;
68858;SDS011;55864;49.238;8.092;2022-07-29T12:34:54;6.45;;;3.55;;
68858;SDS011;55864;49.238;8.092;2022-07-29T12:36:56;8.85;;;3.38;;